Alturas Rancheria, California
Current Conditions -  °F | °C
As of 9:55 PM on Monday 20 Oct 2014 (Local Time) from KAAT Reporting Station
Scattered Clouds Scattered Clouds  
Wind Chill: 37°   Ceiling: Unl
Heat Index: 42°   Visibility: 10mi
Dew Point: 38°   Wind: 8mph
Humidity: 85%   Direction: 260°W
Pressure: 29.96"   Gusts: NA
Location:  41.4836°N, 120.55°W
Report Text: KAAT 210455Z AUTO 26007KT 10SM SCT045 SCT070 06/03 A2996 RMK AO2 RAB22E45 SLP125 P0003 T00560033 $
Loading
Personal Weather Stations






























Interactive Weather Map
Tropical Storm Tracking
New forecast layout! Learn more

10-Day Weather Forecast

Advertisements
Track Severe Weather on mobile